Time;durP1;ratioP1;P1;durP2;ratioP2;P2;SDS_P1;SDS_P2;PMS_P1;PMS_P2;Temp;Humidity;BMP_temperature;BMP_pressure;BME280_temperature;BME280_humidity;BME280_pressure;Samples;Min_cycle;Max_cycle;Signal;HPM_P1;HPM_P2
2023/08/14 00:00:54;;;;;;;6.65;5.53;;;;;;;17.46;nan;100942.84;5015179;28;20442;-73
2023/08/14 00:03:19;;;;;;;7.15;6.03;;;;;;;17.43;nan;100944.94;5017334;28;20033;-74
2023/08/14 00:05:45;;;;;;;9.50;5.75;;;;;;;17.40;nan;100939.31;5014106;28;20034;-76
2023/08/14 00:08:10;;;;;;;10.50;5.80;;;;;;;17.38;nan;100926.28;5011873;28;20033;-74
2023/08/14 00:10:36;;;;;;;7.88;6.07;;;;;;;17.44;nan;100937.75;5013989;28;20021;-67
2023/08/14 00:13:01;;;;;;;6.75;6.05;;;;;;;17.41;nan;100932.94;5014625;28;20021;-67
2023/08/14 00:15:26;;;;;;;8.50;6.15;;;;;;;17.40;nan;100926.00;5013507;28;20171;-67
2023/08/14 00:17:52;;;;;;;7.03;5.90;;;;;;;17.45;nan;100942.00;5016603;28;20029;-67
2023/08/14 00:20:17;;;;;;;9.05;6.15;;;;;;;17.45;nan;100944.66;5014657;28;20383;-67
2023/08/14 00:22:43;;;;;;;6.68;5.57;;;;;;;17.40;nan;100942.78;5015461;28;20061;-67
2023/08/14 00:25:09;;;;;;;8.15;5.78;;;;;;;17.38;nan;100936.94;5013756;28;20030;-66
2023/08/14 00:27:34;;;;;;;7.97;5.78;;;;;;;17.36;nan;100938.25;5018482;28;20025;-67
2023/08/14 00:30:01;;;;;;;8.18;5.50;;;;;;;17.33;nan;100933.41;5012284;28;20502;-67
2023/08/14 00:32:26;;;;;;;6.40;5.35;;;;;;;17.30;nan;100928.63;5015656;28;20108;-67
2023/08/14 00:34:51;;;;;;;8.05;5.45;;;;;;;17.29;nan;100932.34;5017829;28;20180;-67
2023/08/14 00:37:17;;;;;;;8.15;5.45;;;;;;;17.18;nan;100920.81;5016731;28;20571;-66
2023/08/14 00:39:42;;;;;;;6.80;5.20;;;;;;;17.20;nan;100932.00;5014487;28;20041;-67
2023/08/14 00:42:08;;;;;;;7.28;5.50;;;;;;;17.13;nan;100924.25;5016215;28;20384;-65
2023/08/14 00:44:33;;;;;;;8.48;5.55;;;;;;;17.12;nan;100929.81;5013078;28;20098;-68
2023/08/14 00:46:59;;;;;;;9.18;6.30;;;;;;;17.10;nan;100926.63;5016968;28;20506;-67
2023/08/14 00:49:24;;;;;;;6.97;5.75;;;;;;;17.10;nan;100923.97;5015784;28;20598;-68
2023/08/14 00:51:50;;;;;;;9.60;5.55;;;;;;;16.97;nan;100912.66;5014372;28;20018;-68
2023/08/14 00:54:15;;;;;;;7.90;6.00;;;;;;;17.02;nan;100925.22;5015457;28;20082;-68
2023/08/14 00:56:41;;;;;;;8.55;5.35;;;;;;;16.92;nan;100919.81;5010141;28;20597;-68
2023/08/14 00:59:08;;;;;;;8.32;5.88;;;;;;;16.93;nan;100924.91;5012371;28;20155;-68
2023/08/14 01:01:33;;;;;;;8.75;5.82;;;;;;;16.93;nan;100937.41;5015485;28;20152;-69
2023/08/14 01:03:59;;;;;;;8.88;6.28;;;;;;;16.92;nan;100939.25;5014767;28;20077;-72
2023/08/14 01:06:24;;;;;;;8.13;5.82;;;;;;;16.86;nan;100940.28;5039884;28;20108;-69
2023/08/14 01:08:50;;;;;;;6.57;5.78;;;;;;;16.80;nan;100936.75;5020070;28;20029;-70
2023/08/14 01:11:57;;;;;;;10.80;6.13;;;;;;;16.66;nan;100935.53;5018089;28;20083;-70
2023/08/14 01:14:31;;;;;;;8.27;5.97;;;;;;;16.62;nan;100937.09;5016471;28;20905;-69
2023/08/14 01:17:01;;;;;;;8.40;6.03;;;;;;;16.46;nan;100925.50;5015914;28;20072;-70
2023/08/14 01:19:36;;;;;;;9.88;6.10;;;;;;;16.57;nan;100932.53;5013483;28;20535;-70
2023/08/14 01:22:27;;;;;;;8.32;6.63;;;;;;;16.56;nan;100936.22;5014821;28;20069;-69
2023/08/14 01:24:59;;;;;;;6.72;6.03;;;;;;;16.60;nan;100933.88;5013050;28;20475;-69
2023/08/14 01:27:25;;;;;;;7.43;5.85;;;;;;;16.61;nan;100932.81;5015797;28;20510;-70
2023/08/14 01:29:56;;;;;;;8.43;6.53;;;;;;;16.64;nan;100932.34;5015686;28;20050;-69
2023/08/14 01:32:21;;;;;;;8.65;6.07;;;;;;;16.59;nan;100924.28;5014732;28;20148;-75
2023/08/14 01:34:47;;;;;;;7.85;6.38;;;;;;;16.65;nan;100928.63;5003534;28;20136;-76
2023/08/14 01:37:32;;;;;;;9.48;6.05;;;;;;;16.64;nan;100927.03;5016012;28;20053;-76
2023/08/14 01:40:25;;;;;;;9.00;6.47;;;;;;;16.65;nan;100925.97;5017006;28;20037;-75
2023/08/14 01:43:04;;;;;;;6.88;5.55;;;;;;;16.61;nan;100922.19;5013604;28;20065;-75
2023/08/14 01:45:32;;;;;;;8.23;5.90;;;;;;;16.54;nan;100919.75;5012478;28;20147;-75
2023/08/14 01:47:59;;;;;;;7.43;6.20;;;;;;;16.59;nan;100925.13;5014377;28;20510;-75
2023/08/14 01:50:26;;;;;;;9.35;6.75;;;;;;;16.56;nan;100914.16;5007273;28;20081;-75
2023/08/14 01:52:52;;;;;;;7.93;6.25;;;;;;;16.55;nan;100924.00;5018093;28;20384;-75
2023/08/14 01:55:18;;;;;;;8.13;5.88;;;;;;;16.38;nan;100897.53;5014043;28;20022;-75
2023/08/14 01:57:43;;;;;;;7.95;6.72;;;;;;;16.49;nan;100918.88;5015986;28;20136;-75
2023/08/14 02:00:09;;;;;;;8.00;6.03;;;;;;;16.52;nan;100921.03;5016332;28;20030;-75
2023/08/14 02:02:36;;;;;;;7.97;5.72;;;;;;;16.52;nan;100923.69;5016944;28;20038;-75
2023/08/14 02:05:01;;;;;;;10.68;6.90;;;;;;;16.54;nan;100921.59;5013899;28;20255;-75
2023/08/14 02:07:27;;;;;;;7.78;6.22;;;;;;;16.49;nan;100919.69;5015327;28;20546;-76
2023/08/14 02:09:52;;;;;;;7.15;6.22;;;;;;;16.58;nan;100920.84;5017905;28;20491;-75
2023/08/14 02:12:17;;;;;;;8.90;6.13;;;;;;;16.56;nan;100919.47;5016419;28;20026;-75
2023/08/14 02:14:43;;;;;;;7.22;6.30;;;;;;;16.58;nan;100928.81;5021536;28;20030;-74
2023/08/14 02:17:08;;;;;;;7.10;6.15;;;;;;;16.61;nan;100924.84;5016505;28;20551;-76
2023/08/14 02:19:33;;;;;;;7.95;6.43;;;;;;;16.63;nan;100929.91;5014303;28;20037;-75
2023/08/14 02:21:59;;;;;;;10.23;5.85;;;;;;;16.64;nan;100929.69;5016062;28;20032;-76
2023/08/14 02:24:24;;;;;;;11.75;6.82;;;;;;;16.66;nan;100919.56;5018069;28;20112;-76
2023/08/14 02:26:50;;;;;;;7.35;6.10;;;;;;;16.67;nan;100926.50;5019814;28;20029;-76
2023/08/14 02:29:15;;;;;;;9.25;5.53;;;;;;;16.75;nan;100927.91;5018631;28;20041;-76
2023/08/14 02:31:45;;;;;;;8.68;6.20;;;;;;;16.76;nan;100929.50;5015002;28;20032;-75
2023/08/14 02:34:11;;;;;;;6.75;5.88;;;;;;;16.78;nan;100925.59;5003101;28;20029;-75
2023/08/14 02:36:36;;;;;;;6.82;5.65;;;;;;;16.78;nan;100928.25;5015948;28;20479;-75
2023/08/14 02:39:02;;;;;;;8.30;5.72;;;;;;;16.77;nan;100931.13;5022592;28;20036;-74
2023/08/14 02:41:28;;;;;;;14.10;5.97;;;;;;;16.84;nan;100931.75;5013973;28;20036;-75
2023/08/14 02:43:54;;;;;;;8.52;5.75;;;;;;;16.84;nan;100938.91;5017763;28;20037;-75
2023/08/14 02:46:19;;;;;;;8.57;5.50;;;;;;;16.86;nan;100934.16;5014808;28;20036;-74
2023/08/14 02:48:45;;;;;;;10.13;5.47;;;;;;;16.83;nan;100930.13;5017031;28;20028;-75
2023/08/14 02:51:10;;;;;;;6.78;5.60;;;;;;;16.84;nan;100929.06;5013068;28;20022;-74
2023/08/14 02:53:36;;;;;;;8.00;5.47;;;;;;;16.89;nan;100934.44;5014998;28;20587;-74
2023/08/14 02:56:01;;;;;;;6.55;4.85;;;;;;;16.87;nan;100933.09;5016194;28;20026;-68
2023/08/14 02:58:26;;;;;;;7.00;5.28;;;;;;;16.78;nan;100925.59;5013428;28;20065;-70
2023/08/14 03:00:52;;;;;;;8.98;5.10;;;;;;;16.80;nan;100935.94;5017665;28;20025;-67
2023/08/14 03:03:17;;;;;;;8.35;5.03;;;;;;;16.74;nan;100928.97;5016142;28;20041;-67
2023/08/14 03:05:44;;;;;;;6.47;4.97;;;;;;;16.75;nan;100935.88;5011078;28;20029;-68
2023/08/14 03:08:09;;;;;;;6.57;5.32;;;;;;;16.71;nan;100934.78;5018499;28;20383;-68
2023/08/14 03:10:35;;;;;;;7.72;5.65;;;;;;;16.63;nan;100928.06;5018601;28;20026;-67
2023/08/14 03:13:01;;;;;;;9.82;5.20;;;;;;;16.60;nan;100931.22;5016388;28;20026;-69
2023/08/14 03:15:26;;;;;;;5.85;5.25;;;;;;;16.58;nan;100928.00;5011862;28;20825;-68
2023/08/14 03:17:52;;;;;;;8.35;5.43;;;;;;;16.58;nan;100938.66;5016004;28;20017;-68
2023/08/14 03:20:17;;;;;;;7.15;5.38;;;;;;;16.57;nan;100939.72;5014522;28;20084;-68
2023/08/14 03:22:42;;;;;;;8.45;5.18;;;;;;;16.53;nan;100933.28;5010892;28;20156;-66
2023/08/14 03:25:08;;;;;;;6.05;5.05;;;;;;;16.51;nan;100944.16;5015304;28;20037;-66
2023/08/14 03:27:34;;;;;;;12.32;5.22;;;;;;;16.45;nan;100939.88;5013276;28;20547;-68
2023/08/14 03:29:59;;;;;;;8.43;5.03;;;;;;;16.44;nan;100940.09;5015213;28;20112;-67
2023/08/14 03:32:25;;;;;;;7.20;5.05;;;;;;;16.37;nan;100943.75;5014088;28;20026;-68
2023/08/14 03:34:51;;;;;;;5.28;4.65;;;;;;;16.35;nan;100935.25;5014098;28;20762;-68
2023/08/14 03:37:16;;;;;;;9.40;5.03;;;;;;;16.36;nan;100950.13;5013111;28;20068;-70
2023/08/14 03:39:42;;;;;;;8.50;5.20;;;;;;;16.37;nan;100956.25;5015278;28;20112;-68
2023/08/14 03:42:07;;;;;;;10.10;4.78;;;;;;;16.32;nan;100957.00;5015935;28;20079;-68
2023/08/14 03:44:32;;;;;;;8.20;5.28;;;;;;;16.23;nan;100941.75;5020168;28;20040;-68
2023/08/14 03:46:58;;;;;;;5.97;5.20;;;;;;;16.25;nan;100943.09;5018785;28;20529;-68
2023/08/14 03:49:23;;;;;;;8.05;5.35;;;;;;;16.21;nan;100952.63;5013312;28;20033;-68
2023/08/14 03:51:48;;;;;;;6.85;5.18;;;;;;;16.21;nan;100941.19;5016459;28;20034;-69
2023/08/14 03:54:14;;;;;;;8.57;5.30;;;;;;;16.28;nan;100953.25;5011994;28;20475;-69
2023/08/14 03:56:39;;;;;;;6.57;5.55;;;;;;;16.28;nan;100952.41;5012248;28;20018;-68
2023/08/14 03:59:05;;;;;;;6.20;5.30;;;;;;;16.33;nan;100955.16;5022054;28;20064;-68
2023/08/14 04:01:31;;;;;;;9.82;5.63;;;;;;;16.34;nan;100962.06;5014848;28;20068;-68
2023/08/14 04:03:56;;;;;;;6.43;5.70;;;;;;;16.31;nan;100950.09;5015152;28;20069;-68
2023/08/14 04:06:22;;;;;;;7.20;5.50;;;;;;;16.31;nan;100955.41;5014662;28;20349;-69
2023/08/14 04:08:47;;;;;;;7.30;6.18;;;;;;;16.40;nan;100966.41;5016866;28;20037;-68
2023/08/14 04:11:12;;;;;;;10.05;5.13;;;;;;;16.41;nan;100967.19;5011885;28;20031;-68
2023/08/14 04:13:38;;;;;;;7.60;5.22;;;;;;;16.40;nan;100963.75;5016908;28;20041;-68
2023/08/14 04:16:04;;;;;;;9.18;5.10;;;;;;;16.48;nan;100976.56;5016595;28;20384;-67
2023/08/14 04:18:30;;;;;;;6.85;5.40;;;;;;;16.46;nan;100962.72;5016848;28;20041;-64
2023/08/14 04:20:56;;;;;;;6.18;5.18;;;;;;;16.56;nan;100981.44;5017974;28;20025;-64
2023/08/14 04:23:25;;;;;;;9.95;5.88;;;;;;;16.61;nan;100977.22;5012646;28;20053;-67
2023/08/14 04:25:52;;;;;;;7.43;5.68;;;;;;;16.59;nan;100969.50;5016133;28;20120;-63
2023/08/14 04:28:17;;;;;;;11.80;5.60;;;;;;;16.66;nan;100978.06;5012509;28;20353;-66
2023/08/14 04:30:43;;;;;;;9.25;6.00;;;;;;;16.70;nan;100978.38;5015646;28;20133;-67
2023/08/14 04:33:08;;;;;;;16.02;6.05;;;;;;;16.75;nan;100981.09;5020281;28;20033;-68
2023/08/14 04:35:37;;;;;;;10.65;5.93;;;;;;;16.76;nan;100974.69;5012114;28;20061;-69
2023/08/14 04:38:02;;;;;;;11.18;5.75;;;;;;;16.87;nan;100991.59;5015614;28;20026;-68
2023/08/14 04:40:28;;;;;;;10.20;5.85;;;;;;;16.89;nan;100984.19;5015044;28;20030;-69
2023/08/14 04:42:53;;;;;;;14.73;6.07;;;;;;;16.99;nan;100992.25;5019046;28;20040;-69
2023/08/14 04:45:19;;;;;;;11.18;5.95;;;;;;;16.99;nan;100984.25;5017336;28;20034;-69
2023/08/14 04:47:44;;;;;;;8.57;6.07;;;;;;;17.11;nan;100998.19;5022138;28;20033;-69
2023/08/14 04:50:09;;;;;;;9.52;6.18;;;;;;;17.12;nan;100985.69;5018418;28;20394;-69
2023/08/14 04:52:35;;;;;;;8.77;5.63;;;;;;;17.13;nan;100988.09;5018814;28;20034;-72
2023/08/14 04:55:00;;;;;;;6.97;5.63;;;;;;;17.26;nan;100986.88;5018777;28;20052;-72
2023/08/14 04:57:25;;;;;;;8.05;5.95;;;;;;;17.35;nan;100992.53;5018848;28;20025;-71
2023/08/14 04:59:51;;;;;;;11.23;5.93;;;;;;;17.47;nan;101001.13;5019653;28;20406;-69
2023/08/14 05:02:16;;;;;;;10.32;5.82;;;;;;;17.58;nan;101000.16;5048329;28;20033;-65
2023/08/14 05:04:41;;;;;;;6.10;5.43;;;;;;;17.71;nan;101004.22;5017736;28;20114;-67
2023/08/14 05:07:07;;;;;;;8.02;5.38;;;;;;;17.76;nan;100998.91;5014299;28;20061;-68
2023/08/14 05:09:33;;;;;;;7.15;5.60;;;;;;;17.83;nan;100990.72;5019620;28;20130;-71
2023/08/14 05:11:58;;;;;;;8.65;5.45;;;;;;;17.95;nan;100996.63;5020892;28;20033;-67
2023/08/14 05:14:24;;;;;;;8.57;5.55;;;;;;;18.03;nan;100985.50;5018011;28;20083;-74
2023/08/14 05:16:50;;;;;;;11.25;5.80;;;;;;;18.17;nan;100996.50;5019201;28;20025;-74
2023/08/14 05:19:15;;;;;;;12.07;5.60;;;;;;;18.28;nan;100998.13;5014150;28;20092;-74
2023/08/14 05:21:41;;;;;;;9.75;5.30;;;;;;;18.34;nan;100992.78;5015809;28;20425;-74
2023/08/14 05:24:07;;;;;;;8.70;5.43;;;;;;;18.43;nan;100997.34;5015901;28;20392;-74
2023/08/14 05:26:33;;;;;;;7.63;4.90;;;;;;;18.58;nan;100999.28;5018692;28;20026;-74
2023/08/14 05:28:58;;;;;;;7.10;5.20;;;;;;;18.66;nan;101003.28;5012777;28;20062;-73
2023/08/14 05:31:24;;;;;;;7.80;4.82;;;;;;;18.56;nan;100981.94;5019238;28;20458;-72
2023/08/14 05:33:49;;;;;;;9.18;4.93;;;;;;;18.82;nan;101004.94;5018034;28;20053;-74
2023/08/14 05:36:14;;;;;;;7.75;4.85;;;;;;;18.92;nan;101001.50;5013743;28;20045;-73
2023/08/14 05:38:40;;;;;;;11.98;5.03;;;;;;;18.96;nan;100999.88;5015254;28;20022;-73
2023/08/14 05:41:05;;;;;;;6.13;4.95;;;;;;;19.06;nan;100999.91;5020729;28;20450;-71
2023/08/14 05:43:31;;;;;;;13.32;5.70;;;;;;;18.96;nan;100967.06;5018200;28;20097;-72
2023/08/14 05:45:56;;;;;;;10.13;5.00;;;;;;;19.36;nan;101010.84;5016718;28;20033;-67
2023/08/14 05:48:22;;;;;;;7.07;4.93;;;;;;;19.50;nan;101017.22;5018325;28;20116;-71
2023/08/14 05:50:50;;;;;;;8.70;4.72;;;;;;;19.49;nan;101011.09;5014263;28;20436;-67
2023/08/14 05:53:15;;;;;;;5.95;4.55;;;;;;;19.55;nan;101023.34;5015358;28;20037;-74
2023/08/14 05:55:41;;;;;;;6.70;4.60;;;;;;;19.65;nan;101013.72;5023462;28;20021;-71
2023/08/14 05:58:07;;;;;;;6.20;4.95;;;;;;;19.69;nan;101022.84;5017206;28;20025;-71
2023/08/14 06:00:34;;;;;;;5.35;4.60;;;;;;;19.84;nan;101020.13;5015779;28;20553;-71
2023/08/14 06:03:00;;;;;;;5.50;4.53;;;;;;;19.88;nan;101007.81;5021382;28;20029;-67
2023/08/14 06:05:25;;;;;;;16.05;4.93;;;;;;;19.87;nan;101002.72;5016724;28;20660;-67
2023/08/14 06:07:53;;;;;;;8.80;4.70;;;;;;;20.06;nan;101016.31;5015941;28;20040;-66
2023/08/14 06:10:18;;;;;;;7.47;4.90;;;;;;;20.08;nan;101014.97;5016692;28;20040;-67
2023/08/14 06:12:44;;;;;;;9.98;5.00;;;;;;;20.22;nan;101019.72;5021426;28;20396;-63
2023/08/14 06:15:11;;;;;;;7.72;5.03;;;;;;;20.20;nan;101014.66;5016494;28;20033;-66
2023/08/14 06:17:37;;;;;;;6.45;5.13;;;;;;;20.32;nan;101019.69;5014284;28;20021;-66
2023/08/14 06:20:03;;;;;;;11.30;4.95;;;;;;;20.40;nan;101011.09;5017588;28;20113;-67
2023/08/14 06:22:28;;;;;;;9.20;5.13;;;;;;;20.57;nan;101016.13;5019111;28;20428;-66
2023/08/14 06:24:54;;;;;;;8.98;5.20;;;;;;;20.67;nan;101025.97;5014797;28;20038;-68
2023/08/14 06:27:20;;;;;;;14.80;5.15;;;;;;;20.74;nan;101019.22;5014004;28;20094;-67
2023/08/14 06:29:45;;;;;;;8.73;5.25;;;;;;;20.86;nan;101024.22;5017675;28;20039;-67
2023/08/14 06:32:10;;;;;;;7.55;4.90;;;;;;;20.97;nan;101025.75;5013107;28;20101;-66
2023/08/14 06:34:36;;;;;;;7.15;4.68;;;;;;;21.09;nan;101013.88;5018690;28;20037;-72
2023/08/14 06:37:01;;;;;;;7.10;5.10;;;;;;;21.24;nan;101022.59;5015247;28;21479;-72
2023/08/14 06:39:27;;;;;;;8.23;5.35;;;;;;;21.25;nan;101012.66;5016783;28;20095;-72
2023/08/14 06:41:53;;;;;;;6.95;5.13;;;;;;;21.51;nan;101010.59;5021659;28;20387;-73
2023/08/14 06:44:18;;;;;;;8.15;5.43;;;;;;;21.65;nan;101013.41;5014937;28;20025;-73
2023/08/14 06:46:44;;;;;;;6.25;4.85;;;;;;;21.89;nan;101026.81;5017771;28;20468;-73
2023/08/14 06:49:10;;;;;;;9.90;5.53;;;;;;;21.99;nan;101028.56;5017374;28;20022;-73
2023/08/14 06:51:36;;;;;;;9.90;5.53;;;;;;;22.04;nan;101028.50;5014693;28;20116;-70
2023/08/14 06:54:02;;;;;;;9.85;5.35;;;;;;;22.19;nan;101028.31;5013417;28;20132;-72
2023/08/14 06:56:27;;;;;;;10.20;5.57;;;;;;;22.38;nan;101035.63;5013912;28;20034;-72
2023/08/14 06:58:52;;;;;;;7.18;5.50;;;;;;;22.50;nan;101034.09;5015639;28;20033;-72
2023/08/14 07:01:19;;;;;;;9.10;5.40;;;;;;;22.56;nan;101042.13;5015181;28;20045;-71
2023/08/14 07:03:44;;;;;;;6.65;5.10;;;;;;;22.55;nan;101035.13;5017564;28;20032;-70
2023/08/14 07:06:10;;;;;;;8.55;5.10;;;;;;;22.69;nan;101028.75;5013795;28;20034;-70
2023/08/14 07:08:35;;;;;;;10.25;5.40;;;;;;;22.70;nan;101040.31;5015320;28;20044;-71
2023/08/14 07:11:01;;;;;;;12.25;5.97;;;;;;;22.86;nan;101033.59;5044870;28;20479;-68
2023/08/14 07:13:26;;;;;;;7.50;5.05;;;;;;;23.00;nan;101044.44;5013257;28;20643;-66
2023/08/14 07:15:52;;;;;;;9.00;5.13;;;;;;;23.10;nan;101033.50;5015651;28;20033;-66
2023/08/14 07:18:18;;;;;;;9.70;5.25;;;;;;;23.22;nan;101038.44;5018029;28;20034;-67
2023/08/14 07:20:47;;;;;;;9.73;5.82;;;;;;;23.23;nan;101039.25;5014610;28;20037;-69
2023/08/14 07:23:16;;;;;;;;;;;;;;;23.35;nan;101044.94;5014353;28;20077;-71
2023/08/14 07:25:41;;;;;;;7.57;5.65;;;;;;;23.53;nan;101033.31;5014405;28;19917;-71
2023/08/14 07:28:07;;;;;;;8.50;5.88;;;;;;;23.51;nan;101032.84;5015172;28;20617;-71
2023/08/14 07:30:32;;;;;;;9.48;5.20;;;;;;;23.68;nan;101045.72;5017032;28;20034;-71
2023/08/14 07:32:57;;;;;;;18.67;6.15;;;;;;;23.90;nan;101034.28;5022251;28;20032;-71
2023/08/14 07:35:23;;;;;;;12.75;5.60;;;;;;;23.91;nan;101030.50;5015743;28;20113;-71
2023/08/14 07:37:49;;;;;;;6.00;5.40;;;;;;;23.96;nan;101032.28;5013934;28;20029;-71
2023/08/14 07:40:14;;;;;;;9.82;5.50;;;;;;;24.08;nan;101029.88;5016155;28;20040;-70
2023/08/14 07:42:40;;;;;;;7.45;5.20;;;;;;;24.16;nan;101033.78;5013971;28;20022;-71
2023/08/14 07:45:05;;;;;;;7.50;5.30;;;;;;;24.33;nan;101035.84;5018590;28;20361;-71
2023/08/14 07:47:30;;;;;;;6.45;4.90;;;;;;;24.25;nan;101006.94;5015405;28;20033;-71
2023/08/14 07:49:56;;;;;;;5.32;4.70;;;;;;;24.60;nan;101032.31;5016199;28;20030;-71
2023/08/14 07:52:21;;;;;;;9.88;4.70;;;;;;;24.68;nan;101033.50;5015976;28;20144;-71
2023/08/14 07:54:47;;;;;;;11.63;5.20;;;;;;;24.85;nan;101036.31;5016170;28;20069;-71
2023/08/14 07:57:12;;;;;;;5.38;4.60;;;;;;;24.83;nan;101023.16;5014772;28;20057;-70
2023/08/14 07:59:37;;;;;;;5.88;4.80;;;;;;;24.89;nan;101031.13;5017905;28;20042;-71
2023/08/14 08:02:03;;;;;;;5.72;4.45;;;;;;;25.02;nan;101038.34;5014730;28;20021;-71
2023/08/14 08:04:36;;;;;;;7.68;4.60;;;;;;;25.10;nan;101036.81;5015579;28;20030;-72
2023/08/14 08:07:02;;;;;;;8.27;4.70;;;;;;;25.16;nan;101036.38;5017142;28;20025;-73
2023/08/14 08:09:28;;;;;;;6.55;4.50;;;;;;;25.29;nan;101042.03;5015289;28;20029;-73
2023/08/14 08:11:53;;;;;;;6.65;4.80;;;;;;;25.35;nan;101046.19;5013211;28;20514;-73
2023/08/14 08:14:19;;;;;;;5.45;4.55;;;;;;;25.38;nan;101042.88;5018673;28;20448;-74
2023/08/14 08:16:44;;;;;;;4.40;4.00;;;;;;;25.46;nan;101047.53;5023561;28;20112;-73
2023/08/14 08:19:10;;;;;;;5.00;4.40;;;;;;;25.52;nan;101048.19;5018727;28;20034;-73
2023/08/14 08:21:36;;;;;;;7.88;4.28;;;;;;;25.56;nan;101033.75;5018005;28;20442;-73
2023/08/14 08:24:04;;;;;;;5.78;4.50;;;;;;;25.63;nan;101041.41;5023504;28;20065;-68
2023/08/14 08:26:29;;;;;;;7.15;4.40;;;;;;;25.82;nan;101044.66;5019268;28;20595;-68
2023/08/14 08:28:55;;;;;;;6.47;3.92;;;;;;;25.89;nan;101045.03;5021041;28;20086;-67
2023/08/14 08:31:20;;;;;;;9.52;4.53;;;;;;;25.97;nan;101040.78;5018305;28;20034;-67
2023/08/14 08:33:46;;;;;;;5.18;4.13;;;;;;;25.92;nan;101027.44;5018482;28;20068;-69
2023/08/14 08:36:11;;;;;;;4.90;4.30;;;;;;;26.08;nan;101043.97;5019157;28;20497;-69
2023/08/14 08:38:36;;;;;;;6.03;4.03;;;;;;;26.20;nan;101036.06;5018791;28;20099;-68
2023/08/14 08:41:02;;;;;;;6.00;4.15;;;;;;;26.21;nan;101026.06;5022294;28;20032;-68
2023/08/14 08:43:31;;;;;;;5.35;4.13;;;;;;;26.26;nan;101037.50;5018553;28;20029;-68
2023/08/14 08:45:59;;;;;;;6.78;3.90;;;;;;;26.39;nan;101043.09;5022947;28;20026;-69
2023/08/14 08:48:24;;;;;;;5.90;4.32;;;;;;;26.52;nan;101039.44;5016722;28;20424;-67
2023/08/14 08:50:50;;;;;;;7.80;4.15;;;;;;;26.56;nan;101036.94;5017170;28;20041;-67
2023/08/14 08:53:20;;;;;;;5.28;3.75;;;;;;;26.66;nan;101036.63;5017926;28;20099;-67
2023/08/14 08:55:47;;;;;;;4.95;3.80;;;;;;;26.70;nan;101032.97;5013926;28;20090;-67
2023/08/14 08:58:18;;;;;;;7.07;4.18;;;;;;;26.78;nan;101039.47;5017272;28;20060;-66
2023/08/14 09:00:47;;;;;;;4.40;3.90;;;;;;;26.78;nan;101028.66;5022938;28;20022;-67
2023/08/14 09:03:12;;;;;;;4.97;3.95;;;;;;;26.84;nan;101026.59;5016712;28;20029;-66
2023/08/14 09:05:39;;;;;;;7.60;4.10;;;;;;;27.02;nan;101033.56;5016826;28;20041;-66
2023/08/14 09:08:05;;;;;;;6.80;4.22;;;;;;;27.06;nan;101033.72;5020636;28;20025;-67
2023/08/14 09:10:30;;;;;;;4.97;3.78;;;;;;;27.08;nan;101031.47;5018056;28;20029;-67
2023/08/14 09:12:56;;;;;;;6.90;3.90;;;;;;;27.16;nan;101023.34;5015809;28;20029;-66
2023/08/14 09:15:25;;;;;;;6.80;3.60;;;;;;;27.25;nan;101020.66;5016307;28;20132;-67
2023/08/14 09:17:51;;;;;;;;;;;;;;;27.38;nan;101018.09;5016736;28;20060;-66
2023/08/14 09:20:16;;;;;;;6.43;3.70;;;;;;;27.44;nan;101022.19;5004673;28;19963;-67
2023/08/14 09:22:41;;;;;;;9.77;3.47;;;;;;;27.51;nan;101014.34;5017979;28;20045;-66
2023/08/14 09:25:08;;;;;;;6.45;3.75;;;;;;;27.59;nan;101010.84;5016127;28;20064;-69
2023/08/14 09:27:34;;;;;;;4.82;3.80;;;;;;;27.65;nan;101009.53;5015851;28;20499;-68
2023/08/14 09:30:00;;;;;;;6.30;3.50;;;;;;;27.71;nan;101010.94;5014310;28;20070;-69
2023/08/14 09:32:25;;;;;;;9.88;3.88;;;;;;;27.76;nan;101002.63;5015542;28;20022;-65
2023/08/14 09:35:02;;;;;;;5.65;3.67;;;;;;;27.87;nan;101002.28;5018005;28;20115;-66
2023/08/14 09:37:28;;;;;;;6.97;4.00;;;;;;;27.90;nan;100990.81;5017094;28;20030;-65
2023/08/14 09:40:15;;;;;;;6.35;3.72;;;;;;;27.93;nan;100990.94;5018736;28;20042;-64
2023/08/14 09:42:48;;;;;;;8.20;4.00;;;;;;;27.98;nan;100992.66;5033075;28;20048;-65
2023/08/14 09:45:18;;;;;;;4.68;3.58;;;;;;;28.00;nan;100985.00;5013845;28;20037;-65
2023/08/14 09:47:45;;;;;;;8.02;3.75;;;;;;;28.14;nan;100992.88;5016011;28;20036;-63
2023/08/14 09:50:15;;;;;;;9.05;4.07;;;;;;;28.22;nan;100992.03;5014763;28;20030;-66
2023/08/14 09:52:40;;;;;;;7.68;3.67;;;;;;;28.19;nan;100981.84;5020072;28;20117;-64
2023/08/14 09:55:06;;;;;;;6.10;3.90;;;;;;;28.31;nan;100992.75;5015950;28;20664;-65
2023/08/14 09:57:32;;;;;;;5.40;3.40;;;;;;;28.33;nan;100981.59;5018650;28;20025;-65
2023/08/14 09:59:58;;;;;;;5.25;3.38;;;;;;;28.35;nan;100969.31;5018120;28;20029;-64
2023/08/14 10:02:25;;;;;;;5.85;3.70;;;;;;;28.48;nan;100980.22;5017340;28;20495;-64
2023/08/14 10:04:51;;;;;;;4.00;3.45;;;;;;;28.50;nan;100975.28;5015680;28;20022;-64
2023/08/14 10:07:18;;;;;;;8.63;3.53;;;;;;;28.58;nan;100986.00;5017591;28;20017;-65
2023/08/14 10:09:47;;;;;;;3.70;3.30;;;;;;;28.61;nan;100976.44;5016224;28;20032;-64
2023/08/14 10:12:13;;;;;;;;;;;;;;;28.71;nan;100986.06;5019003;28;20060;-65
2023/08/14 10:14:41;;;;;;;5.18;3.20;;;;;;;28.77;nan;100973.91;5016909;28;20531;-65
2023/08/14 10:17:14;;;;;;;4.97;3.40;;;;;;;28.76;nan;100966.91;5015494;28;20045;-64
2023/08/14 10:19:41;;;;;;;3.92;3.53;;;;;;;28.83;nan;100973.34;5019027;28;20335;-66
2023/08/14 10:22:08;;;;;;;3.55;3.20;;;;;;;28.86;nan;100965.69;5015460;28;20029;-64
2023/08/14 10:24:37;;;;;;;7.68;3.38;;;;;;;28.96;nan;100967.97;5015799;28;20049;-65
2023/08/14 10:27:04;;;;;;;9.07;3.55;;;;;;;29.00;nan;100961.53;5021521;28;20376;-68
2023/08/14 10:29:31;;;;;;;6.45;3.50;;;;;;;29.05;nan;100949.69;5020004;28;20140;-68
2023/08/14 10:31:57;;;;;;;7.63;3.45;;;;;;;29.19;nan;100961.03;5019319;28;20092;-66
2023/08/14 10:34:23;;;;;;;6.90;3.47;;;;;;;29.24;nan;100955.38;5017396;28;20025;-67
2023/08/14 10:36:52;;;;;;;6.25;3.30;;;;;;;29.31;nan;100949.41;5017275;28;20107;-66
2023/08/14 10:39:18;;;;;;;6.15;3.13;;;;;;;29.41;nan;100954.38;5016019;28;20044;-67
2023/08/14 10:41:44;;;;;;;4.35;3.30;;;;;;;29.49;nan;100955.38;5009130;28;20664;-67
2023/08/14 10:44:11;;;;;;;4.65;3.42;;;;;;;29.55;nan;100953.25;5016383;28;20029;-67
2023/08/14 10:46:43;;;;;;;7.80;3.40;;;;;;;29.54;nan;100946.22;5013155;28;20116;-67
2023/08/14 10:49:11;;;;;;;4.38;3.60;;;;;;;29.63;nan;100955.03;5013784;28;20131;-68
2023/08/14 10:51:41;;;;;;;3.90;3.20;;;;;;;29.71;nan;100951.44;5017686;28;20029;-66
2023/08/14 10:54:13;;;;;;;3.95;3.53;;;;;;;29.77;nan;100946.56;5017079;28;20502;-68
2023/08/14 10:56:41;;;;;;;4.15;3.53;;;;;;;29.75;nan;100946.91;5013724;28;20037;-67
2023/08/14 10:59:19;;;;;;;4.03;3.40;;;;;;;29.77;nan;100946.56;5014455;28;20026;-67
2023/08/14 11:01:49;;;;;;;5.40;3.47;;;;;;;29.77;nan;100943.84;5016019;28;20032;-67
2023/08/14 11:04:15;;;;;;;4.75;3.42;;;;;;;29.77;nan;100944.66;5016563;28;20029;-67
2023/08/14 11:07:11;;;;;;;6.78;3.50;;;;;;;29.82;nan;100943.63;5018994;28;20163;-68
2023/08/14 11:09:38;;;;;;;8.35;3.80;;;;;;;29.85;nan;100934.78;5016999;28;20467;-66
2023/08/14 11:12:08;;;;;;;6.47;3.83;;;;;;;29.95;nan;100938.94;5014876;28;20084;-68
2023/08/14 11:14:36;;;;;;;4.22;3.20;;;;;;;29.94;nan;100918.38;5016254;28;20137;-68
2023/08/14 11:17:02;;;;;;;5.05;3.45;;;;;;;30.02;nan;100922.84;5019382;28;20033;-68
2023/08/14 11:19:28;;;;;;;5.65;3.50;;;;;;;30.04;nan;100926.81;5015616;28;20480;-68
2023/08/14 11:21:53;;;;;;;5.22;3.33;;;;;;;30.10;nan;100922.72;5016556;28;20040;-67
2023/08/14 11:24:19;;;;;;;4.18;3.50;;;;;;;30.05;nan;100911.28;5022804;28;20053;-67
2023/08/14 11:26:44;;;;;;;4.95;3.35;;;;;;;30.08;nan;100916.06;5013958;28;20686;-68
2023/08/14 11:29:10;;;;;;;6.30;3.78;;;;;;;30.07;nan;100923.41;5013822;28;20483;-68
2023/08/14 11:31:36;;;;;;;5.05;3.40;;;;;;;29.92;nan;100909.78;5018592;28;20033;-68
2023/08/14 11:34:01;;;;;;;4.40;3.33;;;;;;;30.00;nan;100908.81;5013391;28;20026;-67
2023/08/14 11:36:27;;;;;;;5.85;3.50;;;;;;;29.98;nan;100905.66;5016815;28;20395;-66
2023/08/14 11:38:53;;;;;;;7.28;3.58;;;;;;;30.01;nan;100907.72;5013285;28;20029;-63